sensor_id;sensor_type;location;lat;lon;timestamp;P1;durP1;ratioP1;P2;durP2;ratioP2
37201;SDS011;37799;52.390;6.136;2023-07-13T00:01:25;2.25;;;0.20;;
37201;SDS011;37799;52.390;6.136;2023-07-13T00:03:51;2.22;;;0.25;;
37201;SDS011;37799;52.390;6.136;2023-07-13T00:06:17;1.50;;;0.25;;
37201;SDS011;37799;52.390;6.136;2023-07-13T00:08:42;2.70;;;0.15;;
37201;SDS011;37799;52.390;6.136;2023-07-13T00:11:08;1.13;;;0.17;;
37201;SDS011;37799;52.390;6.136;2023-07-13T00:13:35;1.35;;;0.10;;
37201;SDS011;37799;52.390;6.136;2023-07-13T00:16:03;2.13;;;0.40;;
37201;SDS011;37799;52.390;6.136;2023-07-13T00:18:28;2.25;;;0.35;;
37201;SDS011;37799;52.390;6.136;2023-07-13T00:20:55;0.77;;;0.20;;
37201;SDS011;37799;52.390;6.136;2023-07-13T00:23:20;4.55;;;0.40;;
37201;SDS011;37799;52.390;6.136;2023-07-13T00:25:46;3.50;;;0.43;;
37201;SDS011;37799;52.390;6.136;2023-07-13T00:28:11;2.45;;;0.32;;
37201;SDS011;37799;52.390;6.136;2023-07-13T00:30:37;5.60;;;0.50;;
37201;SDS011;37799;52.390;6.136;2023-07-13T00:33:02;2.65;;;0.22;;
37201;SDS011;37799;52.390;6.136;2023-07-13T00:35:30;0.75;;;0.15;;
37201;SDS011;37799;52.390;6.136;2023-07-13T00:37:57;4.00;;;0.95;;
37201;SDS011;37799;52.390;6.136;2023-07-13T00:40:22;1.35;;;0.10;;
37201;SDS011;37799;52.390;6.136;2023-07-13T00:42:48;2.28;;;0.57;;
37201;SDS011;37799;52.390;6.136;2023-07-13T00:47:43;0.70;;;0.10;;
37201;SDS011;37799;52.390;6.136;2023-07-13T00:50:09;1.23;;;0.20;;
37201;SDS011;37799;52.390;6.136;2023-07-13T00:52:37;1.95;;;0.32;;
37201;SDS011;37799;52.390;6.136;2023-07-13T00:55:05;4.28;;;0.32;;
37201;SDS011;37799;52.390;6.136;2023-07-13T00:57:32;3.20;;;0.20;;
37201;SDS011;37799;52.390;6.136;2023-07-13T00:59:59;0.63;;;0.13;;
37201;SDS011;37799;52.390;6.136;2023-07-13T01:02:31;1.60;;;0.30;;
37201;SDS011;37799;52.390;6.136;2023-07-13T01:04:58;3.05;;;0.35;;
37201;SDS011;37799;52.390;6.136;2023-07-13T01:07:23;0.63;;;0.10;;
37201;SDS011;37799;52.390;6.136;2023-07-13T01:09:50;1.73;;;0.20;;
37201;SDS011;37799;52.390;6.136;2023-07-13T01:12:15;1.15;;;0.25;;
37201;SDS011;37799;52.390;6.136;2023-07-13T01:14:41;2.25;;;0.57;;
37201;SDS011;37799;52.390;6.136;2023-07-13T01:17:08;1.75;;;0.30;;
37201;SDS011;37799;52.390;6.136;2023-07-13T01:19:37;2.50;;;0.13;;
37201;SDS011;37799;52.390;6.136;2023-07-13T01:22:06;2.00;;;0.22;;
37201;SDS011;37799;52.390;6.136;2023-07-13T01:24:37;2.80;;;0.30;;
37201;SDS011;37799;52.390;6.136;2023-07-13T01:27:04;2.97;;;0.32;;
37201;SDS011;37799;52.390;6.136;2023-07-13T01:29:32;3.45;;;0.30;;
37201;SDS011;37799;52.390;6.136;2023-07-13T01:31:58;1.55;;;0.20;;
37201;SDS011;37799;52.390;6.136;2023-07-13T01:34:25;3.83;;;0.30;;
37201;SDS011;37799;52.390;6.136;2023-07-13T01:36:51;2.22;;;0.30;;
37201;SDS011;37799;52.390;6.136;2023-07-13T01:39:18;2.25;;;0.22;;
37201;SDS011;37799;52.390;6.136;2023-07-13T01:41:47;1.38;;;0.20;;
37201;SDS011;37799;52.390;6.136;2023-07-13T01:44:12;4.03;;;0.30;;
37201;SDS011;37799;52.390;6.136;2023-07-13T01:46:38;2.47;;;0.40;;
37201;SDS011;37799;52.390;6.136;2023-07-13T01:49:03;0.32;;;0.10;;
37201;SDS011;37799;52.390;6.136;2023-07-13T01:51:29;1.88;;;0.40;;
37201;SDS011;37799;52.390;6.136;2023-07-13T01:53:54;1.55;;;0.28;;
37201;SDS011;37799;52.390;6.136;2023-07-13T01:56:20;2.33;;;0.98;;
37201;SDS011;37799;52.390;6.136;2023-07-13T01:58:45;2.95;;;0.17;;
37201;SDS011;37799;52.390;6.136;2023-07-13T02:01:11;2.25;;;0.68;;
37201;SDS011;37799;52.390;6.136;2023-07-13T02:03:36;0.98;;;0.20;;
37201;SDS011;37799;52.390;6.136;2023-07-13T02:06:02;1.52;;;0.22;;
37201;SDS011;37799;52.390;6.136;2023-07-13T02:08:28;1.50;;;0.30;;
37201;SDS011;37799;52.390;6.136;2023-07-13T02:10:53;2.13;;;0.38;;
37201;SDS011;37799;52.390;6.136;2023-07-13T02:13:20;1.80;;;0.30;;
37201;SDS011;37799;52.390;6.136;2023-07-13T02:15:45;1.42;;;0.40;;
37201;SDS011;37799;52.390;6.136;2023-07-13T02:18:10;4.90;;;0.88;;
37201;SDS011;37799;52.390;6.136;2023-07-13T02:20:36;4.97;;;0.77;;
37201;SDS011;37799;52.390;6.136;2023-07-13T02:23:01;2.15;;;0.30;;
37201;SDS011;37799;52.390;6.136;2023-07-13T02:25:27;3.30;;;0.40;;
37201;SDS011;37799;52.390;6.136;2023-07-13T02:27:53;2.08;;;0.30;;
37201;SDS011;37799;52.390;6.136;2023-07-13T02:30:18;2.20;;;0.63;;
37201;SDS011;37799;52.390;6.136;2023-07-13T02:32:43;1.15;;;0.30;;
37201;SDS011;37799;52.390;6.136;2023-07-13T02:35:09;2.95;;;0.38;;
37201;SDS011;37799;52.390;6.136;2023-07-13T02:37:35;2.63;;;0.47;;
37201;SDS011;37799;52.390;6.136;2023-07-13T02:40:01;3.60;;;0.35;;
37201;SDS011;37799;52.390;6.136;2023-07-13T02:42:33;3.25;;;0.52;;
37201;SDS011;37799;52.390;6.136;2023-07-13T02:44:58;2.83;;;0.73;;
37201;SDS011;37799;52.390;6.136;2023-07-13T02:47:24;1.67;;;0.40;;
37201;SDS011;37799;52.390;6.136;2023-07-13T02:49:49;2.85;;;0.47;;
37201;SDS011;37799;52.390;6.136;2023-07-13T02:52:15;1.10;;;0.30;;
37201;SDS011;37799;52.390;6.136;2023-07-13T02:54:40;2.38;;;0.38;;
37201;SDS011;37799;52.390;6.136;2023-07-13T02:57:06;0.43;;;0.08;;
37201;SDS011;37799;52.390;6.136;2023-07-13T02:59:31;4.03;;;0.30;;
37201;SDS011;37799;52.390;6.136;2023-07-13T03:01:57;5.93;;;0.50;;
37201;SDS011;37799;52.390;6.136;2023-07-13T03:04:22;1.13;;;0.20;;
37201;SDS011;37799;52.390;6.136;2023-07-13T03:06:48;1.35;;;0.20;;
37201;SDS011;37799;52.390;6.136;2023-07-13T03:09:14;1.80;;;0.40;;
37201;SDS011;37799;52.390;6.136;2023-07-13T03:11:39;4.80;;;0.50;;
37201;SDS011;37799;52.390;6.136;2023-07-13T03:14:05;4.05;;;0.73;;
37201;SDS011;37799;52.390;6.136;2023-07-13T03:16:30;1.80;;;0.38;;
37201;SDS011;37799;52.390;6.136;2023-07-13T03:18:55;4.63;;;0.57;;
37201;SDS011;37799;52.390;6.136;2023-07-13T03:21:21;2.17;;;0.47;;
37201;SDS011;37799;52.390;6.136;2023-07-13T03:23:47;2.92;;;0.32;;
37201;SDS011;37799;52.390;6.136;2023-07-13T03:26:13;3.17;;;0.30;;
37201;SDS011;37799;52.390;6.136;2023-07-13T03:28:41;1.65;;;0.35;;
37201;SDS011;37799;52.390;6.136;2023-07-13T03:31:09;2.17;;;0.30;;
37201;SDS011;37799;52.390;6.136;2023-07-13T03:33:39;3.08;;;0.40;;
37201;SDS011;37799;52.390;6.136;2023-07-13T03:36:05;3.35;;;0.40;;
37201;SDS011;37799;52.390;6.136;2023-07-13T03:38:32;3.88;;;0.25;;
37201;SDS011;37799;52.390;6.136;2023-07-13T03:40:58;2.42;;;0.45;;
37201;SDS011;37799;52.390;6.136;2023-07-13T03:43:23;2.63;;;0.35;;
37201;SDS011;37799;52.390;6.136;2023-07-13T03:45:48;3.25;;;0.32;;
37201;SDS011;37799;52.390;6.136;2023-07-13T03:48:14;3.35;;;0.90;;
37201;SDS011;37799;52.390;6.136;2023-07-13T03:50:40;1.92;;;0.40;;
37201;SDS011;37799;52.390;6.136;2023-07-13T03:53:06;4.15;;;0.57;;
37201;SDS011;37799;52.390;6.136;2023-07-13T03:55:31;2.20;;;0.65;;
37201;SDS011;37799;52.390;6.136;2023-07-13T03:57:58;1.58;;;0.20;;
37201;SDS011;37799;52.390;6.136;2023-07-13T04:00:26;2.88;;;0.20;;
37201;SDS011;37799;52.390;6.136;2023-07-13T04:02:51;6.28;;;0.52;;
37201;SDS011;37799;52.390;6.136;2023-07-13T04:05:17;4.20;;;0.93;;
37201;SDS011;37799;52.390;6.136;2023-07-13T04:07:42;3.03;;;0.70;;
37201;SDS011;37799;52.390;6.136;2023-07-13T04:10:09;2.65;;;1.02;;
37201;SDS011;37799;52.390;6.136;2023-07-13T04:12:34;2.70;;;1.00;;
37201;SDS011;37799;52.390;6.136;2023-07-13T04:14:59;1.65;;;0.40;;
37201;SDS011;37799;52.390;6.136;2023-07-13T04:17:25;3.03;;;0.75;;
37201;SDS011;37799;52.390;6.136;2023-07-13T04:19:50;0.68;;;0.20;;
37201;SDS011;37799;52.390;6.136;2023-07-13T04:22:16;3.70;;;0.30;;
37201;SDS011;37799;52.390;6.136;2023-07-13T04:24:41;6.55;;;0.80;;
37201;SDS011;37799;52.390;6.136;2023-07-13T04:27:06;4.25;;;0.60;;
37201;SDS011;37799;52.390;6.136;2023-07-13T04:29:32;5.82;;;0.60;;
37201;SDS011;37799;52.390;6.136;2023-07-13T04:31:58;1.30;;;0.22;;
37201;SDS011;37799;52.390;6.136;2023-07-13T04:34:24;4.65;;;0.40;;
37201;SDS011;37799;52.390;6.136;2023-07-13T04:36:49;2.38;;;0.63;;
37201;SDS011;37799;52.390;6.136;2023-07-13T04:39:15;1.90;;;0.75;;
37201;SDS011;37799;52.390;6.136;2023-07-13T04:41:41;2.95;;;0.38;;
37201;SDS011;37799;52.390;6.136;2023-07-13T04:44:06;4.15;;;0.30;;
37201;SDS011;37799;52.390;6.136;2023-07-13T04:46:32;1.10;;;0.30;;
37201;SDS011;37799;52.390;6.136;2023-07-13T04:48:57;1.83;;;0.40;;
37201;SDS011;37799;52.390;6.136;2023-07-13T04:51:23;8.18;;;0.30;;
37201;SDS011;37799;52.390;6.136;2023-07-13T04:53:49;1.42;;;0.30;;
37201;SDS011;37799;52.390;6.136;2023-07-13T04:56:15;2.67;;;0.52;;
37201;SDS011;37799;52.390;6.136;2023-07-13T04:58:40;2.75;;;0.60;;
37201;SDS011;37799;52.390;6.136;2023-07-13T05:01:06;1.98;;;0.50;;
37201;SDS011;37799;52.390;6.136;2023-07-13T05:03:32;2.75;;;0.68;;
37201;SDS011;37799;52.390;6.136;2023-07-13T05:06:00;3.28;;;0.57;;
37201;SDS011;37799;52.390;6.136;2023-07-13T05:08:29;2.80;;;0.70;;
37201;SDS011;37799;52.390;6.136;2023-07-13T05:10:54;2.22;;;0.30;;
37201;SDS011;37799;52.390;6.136;2023-07-13T05:13:20;1.52;;;0.30;;
37201;SDS011;37799;52.390;6.136;2023-07-13T05:15:47;1.73;;;0.40;;
37201;SDS011;37799;52.390;6.136;2023-07-13T05:18:21;1.65;;;0.20;;
37201;SDS011;37799;52.390;6.136;2023-07-13T05:20:46;3.25;;;0.32;;
37201;SDS011;37799;52.390;6.136;2023-07-13T05:23:11;4.82;;;0.85;;
37201;SDS011;37799;52.390;6.136;2023-07-13T05:25:37;4.93;;;0.63;;
37201;SDS011;37799;52.390;6.136;2023-07-13T05:28:02;2.92;;;0.40;;
37201;SDS011;37799;52.390;6.136;2023-07-13T05:30:27;4.55;;;0.63;;
37201;SDS011;37799;52.390;6.136;2023-07-13T05:32:53;2.75;;;0.60;;
37201;SDS011;37799;52.390;6.136;2023-07-13T05:35:18;1.77;;;0.40;;
37201;SDS011;37799;52.390;6.136;2023-07-13T05:37:44;1.65;;;0.40;;
37201;SDS011;37799;52.390;6.136;2023-07-13T05:40:09;1.48;;;0.30;;
37201;SDS011;37799;52.390;6.136;2023-07-13T05:42:35;2.63;;;0.70;;
37201;SDS011;37799;52.390;6.136;2023-07-13T05:45:00;1.83;;;0.30;;
37201;SDS011;37799;52.390;6.136;2023-07-13T05:47:26;1.63;;;0.60;;
37201;SDS011;37799;52.390;6.136;2023-07-13T05:49:52;2.58;;;0.55;;
37201;SDS011;37799;52.390;6.136;2023-07-13T05:52:17;3.35;;;0.35;;
37201;SDS011;37799;52.390;6.136;2023-07-13T05:54:42;5.72;;;0.60;;
37201;SDS011;37799;52.390;6.136;2023-07-13T05:57:08;3.05;;;0.80;;
37201;SDS011;37799;52.390;6.136;2023-07-13T05:59:33;6.35;;;0.90;;
37201;SDS011;37799;52.390;6.136;2023-07-13T06:01:59;2.35;;;0.40;;
37201;SDS011;37799;52.390;6.136;2023-07-13T06:04:24;7.15;;;0.85;;
37201;SDS011;37799;52.390;6.136;2023-07-13T06:06:50;5.78;;;1.10;;
37201;SDS011;37799;52.390;6.136;2023-07-13T06:09:15;3.47;;;0.93;;
37201;SDS011;37799;52.390;6.136;2023-07-13T06:11:40;2.42;;;0.50;;
37201;SDS011;37799;52.390;6.136;2023-07-13T06:14:06;4.28;;;0.60;;
37201;SDS011;37799;52.390;6.136;2023-07-13T06:16:31;4.72;;;1.17;;
37201;SDS011;37799;52.390;6.136;2023-07-13T06:18:57;4.60;;;1.00;;
37201;SDS011;37799;52.390;6.136;2023-07-13T06:21:22;2.15;;;0.63;;
37201;SDS011;37799;52.390;6.136;2023-07-13T06:23:49;4.70;;;0.65;;
37201;SDS011;37799;52.390;6.136;2023-07-13T06:26:16;3.42;;;0.88;;
37201;SDS011;37799;52.390;6.136;2023-07-13T06:28:42;5.07;;;0.90;;
37201;SDS011;37799;52.390;6.136;2023-07-13T06:31:09;9.20;;;1.23;;
37201;SDS011;37799;52.390;6.136;2023-07-13T06:33:36;6.63;;;1.08;;
37201;SDS011;37799;52.390;6.136;2023-07-13T06:36:02;6.15;;;1.35;;
37201;SDS011;37799;52.390;6.136;2023-07-13T06:38:29;3.95;;;1.10;;
37201;SDS011;37799;52.390;6.136;2023-07-13T06:40:55;8.65;;;1.40;;
37201;SDS011;37799;52.390;6.136;2023-07-13T06:43:21;5.22;;;1.38;;
37201;SDS011;37799;52.390;6.136;2023-07-13T06:45:48;4.57;;;0.80;;
37201;SDS011;37799;52.390;6.136;2023-07-13T06:48:15;7.40;;;1.55;;
37201;SDS011;37799;52.390;6.136;2023-07-13T06:50:42;4.30;;;1.27;;
37201;SDS011;37799;52.390;6.136;2023-07-13T06:53:08;4.43;;;1.45;;
37201;SDS011;37799;52.390;6.136;2023-07-13T06:55:36;7.28;;;1.48;;
37201;SDS011;37799;52.390;6.136;2023-07-13T06:58:02;5.47;;;1.55;;
37201;SDS011;37799;52.390;6.136;2023-07-13T07:00:27;3.45;;;1.15;;
37201;SDS011;37799;52.390;6.136;2023-07-13T07:02:53;8.20;;;1.25;;
37201;SDS011;37799;52.390;6.136;2023-07-13T07:05:18;8.15;;;1.45;;
37201;SDS011;37799;52.390;6.136;2023-07-13T07:07:47;2.95;;;0.82;;
37201;SDS011;37799;52.390;6.136;2023-07-13T07:10:15;4.85;;;1.35;;
37201;SDS011;37799;52.390;6.136;2023-07-13T07:12:41;4.50;;;1.58;;
37201;SDS011;37799;52.390;6.136;2023-07-13T07:15:06;6.68;;;1.35;;
37201;SDS011;37799;52.390;6.136;2023-07-13T07:17:32;3.58;;;1.10;;
37201;SDS011;37799;52.390;6.136;2023-07-13T07:19:57;7.40;;;1.00;;
37201;SDS011;37799;52.390;6.136;2023-07-13T07:22:23;7.57;;;1.33;;
37201;SDS011;37799;52.390;6.136;2023-07-13T07:24:52;4.47;;;1.33;;
37201;SDS011;37799;52.390;6.136;2023-07-13T07:27:18;3.75;;;1.08;;
37201;SDS011;37799;52.390;6.136;2023-07-13T07:29:43;2.90;;;1.05;;
37201;SDS011;37799;52.390;6.136;2023-07-13T07:32:09;5.10;;;1.17;;
37201;SDS011;37799;52.390;6.136;2023-07-13T07:34:34;4.03;;;1.40;;
37201;SDS011;37799;52.390;6.136;2023-07-13T07:37:00;2.78;;;0.80;;
37201;SDS011;37799;52.390;6.136;2023-07-13T07:39:26;6.88;;;1.48;;
37201;SDS011;37799;52.390;6.136;2023-07-13T07:41:52;4.57;;;0.90;;
37201;SDS011;37799;52.390;6.136;2023-07-13T07:44:18;3.22;;;0.88;;
37201;SDS011;37799;52.390;6.136;2023-07-13T07:46:43;3.75;;;0.82;;
37201;SDS011;37799;52.390;6.136;2023-07-13T07:49:08;3.70;;;1.20;;
37201;SDS011;37799;52.390;6.136;2023-07-13T07:51:34;11.60;;;1.30;;
37201;SDS011;37799;52.390;6.136;2023-07-13T07:53:59;5.45;;;1.38;;
37201;SDS011;37799;52.390;6.136;2023-07-13T07:56:25;5.25;;;0.90;;
37201;SDS011;37799;52.390;6.136;2023-07-13T07:58:52;3.40;;;0.80;;
37201;SDS011;37799;52.390;6.136;2023-07-13T08:01:17;3.95;;;1.02;;
37201;SDS011;37799;52.390;6.136;2023-07-13T08:03:43;3.92;;;1.00;;
37201;SDS011;37799;52.390;6.136;2023-07-13T08:06:08;5.78;;;1.30;;
37201;SDS011;37799;52.390;6.136;2023-07-13T08:08:37;5.40;;;1.10;;
37201;SDS011;37799;52.390;6.136;2023-07-13T08:11:04;5.18;;;1.33;;
37201;SDS011;37799;52.390;6.136;2023-07-13T08:13:33;4.50;;;1.10;;
37201;SDS011;37799;52.390;6.136;2023-07-13T08:15:59;5.70;;;0.95;;
37201;SDS011;37799;52.390;6.136;2023-07-13T08:18:25;2.65;;;1.00;;
37201;SDS011;37799;52.390;6.136;2023-07-13T08:20:53;4.28;;;0.85;;
37201;SDS011;37799;52.390;6.136;2023-07-13T08:23:21;3.45;;;1.00;;
37201;SDS011;37799;52.390;6.136;2023-07-13T08:25:51;3.20;;;0.90;;
37201;SDS011;37799;52.390;6.136;2023-07-13T08:28:18;5.30;;;1.20;;
37201;SDS011;37799;52.390;6.136;2023-07-13T08:30:45;5.68;;;1.20;;
37201;SDS011;37799;52.390;6.136;2023-07-13T08:33:14;3.78;;;0.98;;
37201;SDS011;37799;52.390;6.136;2023-07-13T08:35:40;5.00;;;1.13;;
37201;SDS011;37799;52.390;6.136;2023-07-13T08:38:06;6.18;;;1.27;;
37201;SDS011;37799;52.390;6.136;2023-07-13T08:40:31;3.58;;;1.17;;
37201;SDS011;37799;52.390;6.136;2023-07-13T08:42:59;4.00;;;1.25;;
37201;SDS011;37799;52.390;6.136;2023-07-13T08:45:30;5.47;;;0.90;;
37201;SDS011;37799;52.390;6.136;2023-07-13T08:48:11;4.50;;;1.23;;
37201;SDS011;37799;52.390;6.136;2023-07-13T08:50:46;5.53;;;1.48;;
37201;SDS011;37799;52.390;6.136;2023-07-13T08:53:17;3.65;;;0.90;;
37201;SDS011;37799;52.390;6.136;2023-07-13T08:55:44;4.18;;;0.77;;
37201;SDS011;37799;52.390;6.136;2023-07-13T08:58:14;1.73;;;0.50;;
37201;SDS011;37799;52.390;6.136;2023-07-13T09:00:51;3.03;;;0.80;;
37201;SDS011;37799;52.390;6.136;2023-07-13T09:03:23;2.83;;;0.50;;
37201;SDS011;37799;52.390;6.136;2023-07-13T09:05:54;2.03;;;0.43;;
37201;SDS011;37799;52.390;6.136;2023-07-13T09:10:53;3.10;;;0.70;;
37201;SDS011;37799;52.390;6.136;2023-07-13T09:16:42;3.03;;;0.98;;
37201;SDS011;37799;52.390;6.136;2023-07-13T09:19:11;3.17;;;0.75;;
37201;SDS011;37799;52.390;6.136;2023-07-13T09:21:44;3.20;;;0.77;;
37201;SDS011;37799;52.390;6.136;2023-07-13T09:26:57;3.28;;;0.75;;
37201;SDS011;37799;52.390;6.136;2023-07-13T09:29:30;3.08;;;1.10;;
37201;SDS011;37799;52.390;6.136;2023-07-13T09:32:04;2.90;;;0.57;;
37201;SDS011;37799;52.390;6.136;2023-07-13T09:34:35;2.20;;;0.68;;
37201;SDS011;37799;52.390;6.136;2023-07-13T09:37:00;2.88;;;0.65;;
37201;SDS011;37799;52.390;6.136;2023-07-13T09:39:27;2.63;;;0.50;;
37201;SDS011;37799;52.390;6.136;2023-07-13T09:42:01;1.90;;;0.50;;
37201;SDS011;37799;52.390;6.136;2023-07-13T09:44:42;2.85;;;0.47;;
37201;SDS011;37799;52.390;6.136;2023-07-13T09:47:19;4.05;;;0.68;;
37201;SDS011;37799;52.390;6.136;2023-07-13T09:50:02;1.67;;;0.47;;
37201;SDS011;37799;52.390;6.136;2023-07-13T09:52:46;2.08;;;0.50;;
37201;SDS011;37799;52.390;6.136;2023-07-13T09:58:05;2.40;;;0.70;;
37201;SDS011;37799;52.390;6.136;2023-07-13T10:00:37;4.68;;;1.00;;
37201;SDS011;37799;52.390;6.136;2023-07-13T10:03:19;2.67;;;0.50;;
37201;SDS011;37799;52.390;6.136;2023-07-13T10:05:50;2.30;;;0.60;;
37201;SDS011;37799;52.390;6.136;2023-07-13T10:08:28;2.83;;;0.57;;
37201;SDS011;37799;52.390;6.136;2023-07-13T10:13:53;1.77;;;0.52;;
37201;SDS011;37799;52.390;6.136;2023-07-13T10:16:27;2.20;;;0.50;;
37201;SDS011;37799;52.390;6.136;2023-07-13T10:19:20;2.33;;;0.40;;
37201;SDS011;37799;52.390;6.136;2023-07-13T10:24:26;1.75;;;0.30;;
37201;SDS011;37799;52.390;6.136;2023-07-13T10:32:38;2.00;;;0.32;;
37201;SDS011;37799;52.390;6.136;2023-07-13T10:35:05;1.40;;;0.30;;
37201;SDS011;37799;52.390;6.136;2023-07-13T10:40:24;1.08;;;0.30;;
37201;SDS011;37799;52.390;6.136;2023-07-13T10:42:55;1.25;;;0.30;;
37201;SDS011;37799;52.390;6.136;2023-07-13T10:45:24;2.83;;;0.50;;
37201;SDS011;37799;52.390;6.136;2023-07-13T10:47:55;1.27;;;0.35;;
37201;SDS011;37799;52.390;6.136;2023-07-13T10:50:23;1.08;;;0.30;;
37201;SDS011;37799;52.390;6.136;2023-07-13T10:52:54;1.65;;;0.40;;
37201;SDS011;37799;52.390;6.136;2023-07-13T10:58:03;3.45;;;0.77;;
37201;SDS011;37799;52.390;6.136;2023-07-13T11:00:43;1.55;;;0.40;;
37201;SDS011;37799;52.390;6.136;2023-07-13T11:03:13;2.97;;;0.50;;
37201;SDS011;37799;52.390;6.136;2023-07-13T11:05:40;1.40;;;0.30;;
37201;SDS011;37799;52.390;6.136;2023-07-13T11:14:00;2.67;;;0.70;;
37201;SDS011;37799;52.390;6.136;2023-07-13T11:16:45;2.40;;;0.30;;
37201;SDS011;37799;52.390;6.136;2023-07-13T11:24:56;3.90;;;0.43;;
37201;SDS011;37799;52.390;6.136;2023-07-13T11:27:37;3.17;;;0.30;;
37201;SDS011;37799;52.390;6.136;2023-07-13T11:30:06;2.30;;;0.30;;
37201;SDS011;37799;52.390;6.136;2023-07-13T11:35:49;1.38;;;0.22;;
37201;SDS011;37799;52.390;6.136;2023-07-13T11:38:30;1.00;;;0.20;;
37201;SDS011;37799;52.390;6.136;2023-07-13T11:41:04;0.90;;;0.20;;
37201;SDS011;37799;52.390;6.136;2023-07-13T11:43:50;1.40;;;0.20;;
37201;SDS011;37799;52.390;6.136;2023-07-13T11:46:25;1.98;;;0.40;;
37201;SDS011;37799;52.390;6.136;2023-07-13T11:48:53;1.30;;;0.30;;
37201;SDS011;37799;52.390;6.136;2023-07-13T11:53:56;1.60;;;0.30;;
37201;SDS011;37799;52.390;6.136;2023-07-13T11:56:25;0.85;;;0.20;;
37201;SDS011;37799;52.390;6.136;2023-07-13T11:58:51;1.40;;;0.32;;
37201;SDS011;37799;52.390;6.136;2023-07-13T12:01:27;3.58;;;0.30;;
37201;SDS011;37799;52.390;6.136;2023-07-13T12:03:58;1.95;;;0.35;;
37201;SDS011;37799;52.390;6.136;2023-07-13T12:06:30;2.97;;;0.28;;
37201;SDS011;37799;52.390;6.136;2023-07-13T12:08:58;0.98;;;0.25;;
37201;SDS011;37799;52.390;6.136;2023-07-13T12:11:26;2.47;;;0.73;;
37201;SDS011;37799;52.390;6.136;2023-07-13T12:13:54;2.65;;;0.45;;
37201;SDS011;37799;52.390;6.136;2023-07-13T12:16:29;1.92;;;0.55;;
37201;SDS011;37799;52.390;6.136;2023-07-13T12:19:00;3.35;;;0.40;;
37201;SDS011;37799;52.390;6.136;2023-07-13T12:21:37;1.48;;;0.32;;
37201;SDS011;37799;52.390;6.136;2023-07-13T12:24:03;2.03;;;0.45;;
37201;SDS011;37799;52.390;6.136;2023-07-13T12:26:32;1.85;;;0.50;;
37201;SDS011;37799;52.390;6.136;2023-07-13T12:28:59;2.20;;;0.57;;
37201;SDS011;37799;52.390;6.136;2023-07-13T12:31:39;2.63;;;0.52;;
37201;SDS011;37799;52.390;6.136;2023-07-13T12:34:16;1.83;;;0.35;;
37201;SDS011;37799;52.390;6.136;2023-07-13T12:36:58;5.07;;;0.47;;
37201;SDS011;37799;52.390;6.136;2023-07-13T12:39:35;1.98;;;0.43;;
37201;SDS011;37799;52.390;6.136;2023-07-13T12:42:22;3.35;;;0.50;;
37201;SDS011;37799;52.390;6.136;2023-07-13T12:45:00;2.75;;;0.57;;
37201;SDS011;37799;52.390;6.136;2023-07-13T12:47:28;3.00;;;0.38;;
37201;SDS011;37799;52.390;6.136;2023-07-13T12:49:58;1.33;;;0.30;;
37201;SDS011;37799;52.390;6.136;2023-07-13T12:52:30;1.30;;;0.40;;
37201;SDS011;37799;52.390;6.136;2023-07-13T12:54:59;0.90;;;0.28;;
37201;SDS011;37799;52.390;6.136;2023-07-13T12:57:51;2.00;;;0.55;;
37201;SDS011;37799;52.390;6.136;2023-07-13T13:00:27;1.45;;;0.38;;
37201;SDS011;37799;52.390;6.136;2023-07-13T13:02:57;2.25;;;0.35;;
37201;SDS011;37799;52.390;6.136;2023-07-13T13:05:28;1.40;;;0.30;;
37201;SDS011;37799;52.390;6.136;2023-07-13T13:07:55;1.00;;;0.30;;
37201;SDS011;37799;52.390;6.136;2023-07-13T13:10:21;1.58;;;0.30;;
37201;SDS011;37799;52.390;6.136;2023-07-13T13:12:50;3.88;;;0.35;;
37201;SDS011;37799;52.390;6.136;2023-07-13T13:15:15;2.45;;;0.47;;
37201;SDS011;37799;52.390;6.136;2023-07-13T13:17:41;1.70;;;0.47;;
37201;SDS011;37799;52.390;6.136;2023-07-13T13:20:15;2.05;;;0.40;;
37201;SDS011;37799;52.390;6.136;2023-07-13T13:22:46;1.63;;;0.40;;
37201;SDS011;37799;52.390;6.136;2023-07-13T13:25:12;3.85;;;0.63;;
37201;SDS011;37799;52.390;6.136;2023-07-13T13:27:42;1.05;;;0.22;;
37201;SDS011;37799;52.390;6.136;2023-07-13T13:30:12;2.20;;;0.30;;
37201;SDS011;37799;52.390;6.136;2023-07-13T13:32:39;4.78;;;0.60;;
37201;SDS011;37799;52.390;6.136;2023-07-13T13:35:07;1.92;;;0.20;;
37201;SDS011;37799;52.390;6.136;2023-07-13T13:37:41;4.70;;;0.38;;
37201;SDS011;37799;52.390;6.136;2023-07-13T13:40:17;1.40;;;0.30;;
37201;SDS011;37799;52.390;6.136;2023-07-13T13:42:45;1.83;;;0.55;;
37201;SDS011;37799;52.390;6.136;2023-07-13T13:45:10;2.90;;;0.50;;
37201;SDS011;37799;52.390;6.136;2023-07-13T13:47:42;1.55;;;0.47;;
37201;SDS011;37799;52.390;6.136;2023-07-13T13:50:16;1.23;;;0.20;;
37201;SDS011;37799;52.390;6.136;2023-07-13T13:52:45;4.65;;;0.30;;
37201;SDS011;37799;52.390;6.136;2023-07-13T13:55:17;1.08;;;0.15;;
37201;SDS011;37799;52.390;6.136;2023-07-13T13:57:47;1.27;;;0.20;;
37201;SDS011;37799;52.390;6.136;2023-07-13T14:00:14;1.45;;;0.20;;
37201;SDS011;37799;52.390;6.136;2023-07-13T14:02:42;0.77;;;0.22;;
37201;SDS011;37799;52.390;6.136;2023-07-13T14:05:13;0.50;;;0.10;;
37201;SDS011;37799;52.390;6.136;2023-07-13T14:07:42;0.83;;;0.10;;
37201;SDS011;37799;52.390;6.136;2023-07-13T14:10:14;1.92;;;0.30;;
37201;SDS011;37799;52.390;6.136;2023-07-13T14:12:45;1.17;;;0.20;;
37201;SDS011;37799;52.390;6.136;2023-07-13T14:18:04;1.02;;;0.30;;
37201;SDS011;37799;52.390;6.136;2023-07-13T14:20:29;1.17;;;0.30;;
37201;SDS011;37799;52.390;6.136;2023-07-13T14:22:55;2.30;;;0.40;;
37201;SDS011;37799;52.390;6.136;2023-07-13T14:25:20;1.13;;;0.35;;
37201;SDS011;37799;52.390;6.136;2023-07-13T14:27:48;1.30;;;0.22;;
37201;SDS011;37799;52.390;6.136;2023-07-13T14:30:18;1.80;;;0.30;;
37201;SDS011;37799;52.390;6.136;2023-07-13T14:32:46;0.95;;;0.15;;
37201;SDS011;37799;52.390;6.136;2023-07-13T14:35:14;1.15;;;0.20;;
37201;SDS011;37799;52.390;6.136;2023-07-13T14:37:42;0.90;;;0.10;;
37201;SDS011;37799;52.390;6.136;2023-07-13T14:40:23;1.85;;;0.43;;
37201;SDS011;37799;52.390;6.136;2023-07-13T14:43:09;4.22;;;0.52;;
37201;SDS011;37799;52.390;6.136;2023-07-13T14:45:54;1.15;;;0.20;;
37201;SDS011;37799;52.390;6.136;2023-07-13T14:48:22;0.65;;;0.13;;
37201;SDS011;37799;52.390;6.136;2023-07-13T14:50:56;2.20;;;0.30;;
37201;SDS011;37799;52.390;6.136;2023-07-13T14:53:25;2.03;;;0.28;;
37201;SDS011;37799;52.390;6.136;2023-07-13T14:55:54;3.03;;;0.25;;
37201;SDS011;37799;52.390;6.136;2023-07-13T14:58:20;2.80;;;0.60;;
37201;SDS011;37799;52.390;6.136;2023-07-13T15:00:45;2.67;;;0.40;;
37201;SDS011;37799;52.390;6.136;2023-07-13T15:03:18;4.53;;;0.75;;
37201;SDS011;37799;52.390;6.136;2023-07-13T15:05:53;1.77;;;0.63;;
37201;SDS011;37799;52.390;6.136;2023-07-13T15:08:19;2.63;;;0.20;;
37201;SDS011;37799;52.390;6.136;2023-07-13T15:10:45;1.15;;;0.15;;
37201;SDS011;37799;52.390;6.136;2023-07-13T15:15:46;2.53;;;0.40;;
37201;SDS011;37799;52.390;6.136;2023-07-13T15:18:17;2.40;;;0.35;;
37201;SDS011;37799;52.390;6.136;2023-07-13T15:20:46;1.23;;;0.20;;
37201;SDS011;37799;52.390;6.136;2023-07-13T15:23:14;0.70;;;0.20;;
37201;SDS011;37799;52.390;6.136;2023-07-13T15:25:41;1.88;;;0.60;;
37201;SDS011;37799;52.390;6.136;2023-07-13T15:28:07;1.50;;;0.30;;
37201;SDS011;37799;52.390;6.136;2023-07-13T15:30:36;2.97;;;0.55;;
37201;SDS011;37799;52.390;6.136;2023-07-13T15:33:10;2.85;;;0.30;;
37201;SDS011;37799;52.390;6.136;2023-07-13T15:35:42;2.00;;;0.30;;
37201;SDS011;37799;52.390;6.136;2023-07-13T15:38:42;1.23;;;0.20;;
37201;SDS011;37799;52.390;6.136;2023-07-13T15:41:08;2.28;;;0.40;;
37201;SDS011;37799;52.390;6.136;2023-07-13T15:43:47;1.65;;;0.30;;
37201;SDS011;37799;52.390;6.136;2023-07-13T15:46:17;1.90;;;0.60;;
37201;SDS011;37799;52.390;6.136;2023-07-13T15:48:46;1.13;;;0.20;;